createdAt,value
2023-08-19T00:00:03.415Z,13
2023-08-19T00:01:02.944Z,14
2023-08-19T00:02:03.900Z,14
2023-08-19T00:04:03.030Z,13
2023-08-19T00:05:02.925Z,15
2023-08-19T00:06:03.486Z,14
2023-08-19T00:07:03.023Z,13
2023-08-19T00:09:03.577Z,14
2023-08-19T00:10:03.536Z,13
2023-08-19T00:11:03.561Z,13
2023-08-19T00:12:03.355Z,13
2023-08-19T00:13:03.093Z,14
2023-08-19T00:15:03.752Z,15
2023-08-19T00:16:03.771Z,13
2023-08-19T00:17:03.533Z,13
2023-08-19T00:18:03.416Z,13
2023-08-19T00:19:03.016Z,13
2023-08-19T00:20:02.700Z,14
2023-08-19T00:21:03.373Z,15
2023-08-19T00:22:03.138Z,13
2023-08-19T00:24:03.554Z,13
2023-08-19T00:25:03.427Z,12
2023-08-19T00:26:02.951Z,14
2023-08-19T00:27:03.743Z,13
2023-08-19T00:28:03.265Z,13
2023-08-19T00:30:04.042Z,13
2023-08-19T00:32:03.348Z,13
2023-08-19T00:33:02.974Z,14
2023-08-19T00:35:03.638Z,16
2023-08-19T00:36:03.250Z,13
2023-08-19T00:38:03.588Z,13
2023-08-19T00:39:03.440Z,14
2023-08-19T00:40:03.483Z,14
2023-08-19T00:41:03.160Z,13
2023-08-19T00:44:03.632Z,14
2023-08-19T00:46:03.059Z,13
2023-08-19T00:47:02.708Z,14
2023-08-19T00:48:03.624Z,14
2023-08-19T00:50:02.846Z,13
2023-08-19T00:51:03.457Z,14
2023-08-19T00:52:03.083Z,14
2023-08-19T00:53:02.796Z,13
2023-08-19T00:54:03.452Z,14
2023-08-19T00:55:03.131Z,13
2023-08-19T00:57:03.393Z,13
2023-08-19T00:58:02.983Z,13
2023-08-19T01:00:04.453Z,14
2023-08-19T01:02:02.945Z,15
2023-08-19T01:03:04.032Z,13
2023-08-19T01:05:03.563Z,13
2023-08-19T01:06:03.153Z,13
2023-08-19T01:08:03.451Z,13
2023-08-19T01:09:03.280Z,13
2023-08-19T01:10:03.340Z,12
2023-08-19T01:11:02.958Z,13
2023-08-19T01:12:03.697Z,14
2023-08-19T01:13:03.391Z,15
2023-08-19T01:15:03.753Z,13
2023-08-19T01:16:03.328Z,13
2023-08-19T01:18:03.905Z,14
2023-08-19T01:20:03.234Z,13
2023-08-19T01:21:03.210Z,15
2023-08-19T01:23:03.599Z,13
2023-08-19T01:24:03.905Z,13
2023-08-19T01:25:02.967Z,13
2023-08-19T01:26:02.653Z,13
2023-08-19T01:27:03.350Z,14
2023-08-19T01:28:02.813Z,14
2023-08-19T01:29:03.537Z,12
2023-08-19T01:30:03.926Z,11
2023-08-19T01:31:03.564Z,14
2023-08-19T01:33:02.923Z,13
2023-08-19T01:34:03.598Z,12
2023-08-19T01:35:03.168Z,12
2023-08-19T01:37:03.492Z,13
2023-08-19T01:38:03.065Z,13
2023-08-19T01:39:03.059Z,13
2023-08-19T01:40:03.100Z,13
2023-08-19T01:41:02.637Z,13
2023-08-19T01:42:03.224Z,13
2023-08-19T01:43:02.802Z,12
2023-08-19T01:44:03.572Z,12
2023-08-19T01:45:03.283Z,12
2023-08-19T01:46:02.918Z,14
2023-08-19T01:47:03.593Z,13
2023-08-19T01:48:03.361Z,12
2023-08-19T01:49:03.004Z,12
2023-08-19T01:51:03.649Z,12
2023-08-19T01:52:03.136Z,12
2023-08-19T01:54:03.438Z,12
2023-08-19T01:55:03.267Z,13
2023-08-19T01:56:02.802Z,15
2023-08-19T01:57:03.460Z,12
2023-08-19T01:58:03.040Z,12
2023-08-19T01:59:02.967Z,13
2023-08-19T02:00:03.760Z,13
2023-08-19T02:01:03.467Z,13
2023-08-19T02:02:03.085Z,13
2023-08-19T02:03:02.815Z,13
2023-08-19T02:04:03.451Z,13
2023-08-19T02:05:04.205Z,13
2023-08-19T02:07:03.360Z,12
2023-08-19T02:08:02.818Z,12
2023-08-19T02:09:03.431Z,12
2023-08-19T02:10:03.249Z,11
2023-08-19T02:11:02.904Z,12
2023-08-19T02:12:03.592Z,11
2023-08-19T02:13:03.130Z,10
2023-08-19T02:15:03.489Z,12
2023-08-19T02:16:03.195Z,12
2023-08-19T02:18:03.770Z,12
2023-08-19T02:19:03.516Z,12
2023-08-19T02:21:02.888Z,11
2023-08-19T02:22:03.596Z,12
2023-08-19T02:23:03.204Z,13
2023-08-19T02:25:03.548Z,12
2023-08-19T02:26:03.106Z,13
2023-08-19T02:27:02.985Z,11
2023-08-19T02:29:03.244Z,12
2023-08-19T02:30:03.087Z,11
2023-08-19T02:31:02.871Z,14
2023-08-19T02:32:03.580Z,12
2023-08-19T02:33:03.298Z,12
2023-08-19T02:35:02.792Z,12
2023-08-19T02:36:03.321Z,10
2023-08-19T02:37:02.954Z,11
2023-08-19T02:38:03.755Z,11
2023-08-19T02:40:03.501Z,12
2023-08-19T02:41:03.105Z,11
2023-08-19T02:42:03.148Z,12
2023-08-19T02:43:02.657Z,12
2023-08-19T02:44:03.481Z,12
2023-08-19T02:45:03.248Z,12
2023-08-19T02:46:02.800Z,11
2023-08-19T02:47:03.522Z,11
2023-08-19T02:48:03.475Z,12
2023-08-19T02:50:03.008Z,11
2023-08-19T02:51:02.633Z,11
2023-08-19T02:52:03.284Z,11
2023-08-19T02:53:03.036Z,11
2023-08-19T02:54:02.671Z,11
2023-08-19T02:55:03.349Z,10
2023-08-19T02:56:02.975Z,10
2023-08-19T02:57:02.697Z,12
2023-08-19T02:58:03.288Z,12
2023-08-19T02:59:03.025Z,12
2023-08-19T03:00:02.991Z,11
2023-08-19T03:01:03.471Z,11
2023-08-19T03:02:03.197Z,11
2023-08-19T03:03:03.024Z,11
2023-08-19T03:05:03.568Z,11
2023-08-19T03:06:03.162Z,10
2023-08-19T03:08:03.380Z,11
2023-08-19T03:09:03.211Z,12
2023-08-19T03:10:03.326Z,12
2023-08-19T03:11:02.809Z,13
2023-08-19T03:12:03.522Z,12
2023-08-19T03:13:03.287Z,16
2023-08-19T03:14:03.193Z,11
2023-08-19T03:15:03.106Z,11
2023-08-19T03:16:02.961Z,10
2023-08-19T03:17:03.623Z,10
2023-08-19T03:18:03.357Z,10
2023-08-19T03:20:03.617Z,12
2023-08-19T03:21:03.198Z,13
2023-08-19T03:23:03.459Z,11
2023-08-19T03:24:03.064Z,11
2023-08-19T03:25:02.798Z,12
2023-08-19T03:26:03.428Z,12
2023-08-19T03:27:02.921Z,12
2023-08-19T03:28:03.594Z,11
2023-08-19T03:29:03.207Z,13
2023-08-19T03:30:03.000Z,11
2023-08-19T03:32:03.449Z,12
2023-08-19T03:33:03.284Z,11
2023-08-19T03:34:02.905Z,11
2023-08-19T03:35:03.676Z,12
2023-08-19T03:36:03.194Z,11
2023-08-19T03:38:03.696Z,10
2023-08-19T03:39:03.510Z,11
2023-08-19T03:40:03.300Z,12
2023-08-19T03:41:02.849Z,11
2023-08-19T03:42:03.614Z,13
2023-08-19T03:43:03.275Z,11
2023-08-19T03:45:03.654Z,10
2023-08-19T03:46:03.437Z,12
2023-08-19T03:48:02.927Z,11
2023-08-19T03:49:03.672Z,11
2023-08-19T03:50:03.298Z,11
2023-08-19T03:52:03.633Z,11
2023-08-19T03:53:03.205Z,11
2023-08-19T03:54:02.945Z,12
2023-08-19T03:55:03.702Z,12
2023-08-19T03:56:03.363Z,13
2023-08-19T03:58:03.653Z,11
2023-08-19T03:59:03.329Z,11
2023-08-19T04:01:02.746Z,10
2023-08-19T04:02:03.489Z,11
2023-08-19T04:03:03.330Z,10
2023-08-19T04:04:03.282Z,11
2023-08-19T04:05:09.224Z,11
2023-08-19T04:07:02.636Z,10
2023-08-19T04:08:03.287Z,11
2023-08-19T04:09:03.067Z,10
2023-08-19T04:10:05.730Z,11
2023-08-19T04:12:03.559Z,14
2023-08-19T04:13:03.106Z,11
2023-08-19T04:15:03.698Z,10
2023-08-19T04:16:03.801Z,10
2023-08-19T04:17:04.135Z,10
2023-08-19T04:19:02.721Z,11
2023-08-19T04:20:03.530Z,12
2023-08-19T04:21:03.293Z,11
2023-08-19T04:22:03.057Z,12
2023-08-19T04:24:03.459Z,11
2023-08-19T04:25:03.285Z,13
2023-08-19T04:26:02.852Z,11
2023-08-19T04:27:03.869Z,11
2023-08-19T04:28:03.547Z,11
2023-08-19T04:29:03.122Z,11
2023-08-19T04:30:03.207Z,12
2023-08-19T04:31:03.249Z,10
2023-08-19T04:32:03.669Z,11
2023-08-19T04:33:03.763Z,12
2023-08-19T04:35:03.503Z,12
2023-08-19T04:36:03.551Z,11
2023-08-19T04:37:03.357Z,11
2023-08-19T04:38:02.904Z,10
2023-08-19T04:39:03.983Z,11
2023-08-19T04:41:03.016Z,12
2023-08-19T04:42:02.848Z,12
2023-08-19T04:43:03.535Z,11
2023-08-19T04:44:03.338Z,11
2023-08-19T04:45:03.506Z,10
2023-08-19T04:46:03.422Z,10
2023-08-19T04:47:03.275Z,11
2023-08-19T04:48:03.059Z,11
2023-08-19T04:50:03.606Z,10
2023-08-19T04:52:03.144Z,11
2023-08-19T04:54:03.505Z,11
2023-08-19T04:55:03.402Z,12
2023-08-19T04:56:03.143Z,11
2023-08-19T04:58:03.622Z,11
2023-08-19T04:59:03.322Z,11
2023-08-19T05:01:03.819Z,11
2023-08-19T05:02:03.428Z,12
2023-08-19T05:03:03.092Z,11
2023-08-19T05:04:03.136Z,11
2023-08-19T05:05:02.932Z,11
2023-08-19T05:06:03.563Z,11
2023-08-19T05:07:03.116Z,12
2023-08-19T05:09:03.959Z,11
2023-08-19T05:10:03.843Z,11
2023-08-19T05:11:03.372Z,10
2023-08-19T05:13:02.845Z,11
2023-08-19T05:14:03.664Z,11
2023-08-19T05:15:03.430Z,10
2023-08-19T05:16:03.237Z,10
2023-08-19T05:18:03.384Z,10
2023-08-19T05:19:03.036Z,10
2023-08-19T05:21:02.808Z,11
2023-08-19T05:22:03.409Z,11
2023-08-19T05:23:02.920Z,12
2023-08-19T05:24:03.584Z,12
2023-08-19T05:25:03.250Z,11
2023-08-19T05:27:04.367Z,11
2023-08-19T05:29:03.573Z,11
2023-08-19T05:30:03.253Z,12
2023-08-19T05:32:03.554Z,12
2023-08-19T05:33:03.310Z,12
2023-08-19T05:36:03.452Z,12
2023-08-19T05:37:02.951Z,11
2023-08-19T05:38:03.582Z,11
2023-08-19T05:39:03.416Z,13
2023-08-19T05:40:03.195Z,12
2023-08-19T05:41:02.900Z,12
2023-08-19T05:42:03.793Z,11
2023-08-19T05:43:03.580Z,11
2023-08-19T05:44:03.368Z,11
2023-08-19T05:46:02.887Z,11
2023-08-19T05:47:03.592Z,11
2023-08-19T05:48:03.538Z,11
2023-08-19T05:49:03.487Z,11
2023-08-19T05:50:03.331Z,11
2023-08-19T05:51:02.976Z,11
2023-08-19T05:52:02.739Z,12
2023-08-19T05:53:03.371Z,12
2023-08-19T05:54:03.005Z,12
2023-08-19T05:55:03.810Z,12
2023-08-19T05:56:03.438Z,12
2023-08-19T05:58:02.851Z,11
2023-08-19T05:59:03.532Z,11
2023-08-19T06:00:03.412Z,11
2023-08-19T06:02:03.378Z,12
2023-08-19T06:03:03.458Z,12
2023-08-19T06:04:03.471Z,12
2023-08-19T06:06:02.889Z,12
2023-08-19T06:07:03.617Z,12
2023-08-19T06:08:03.428Z,12
2023-08-19T06:09:03.025Z,12
2023-08-19T06:10:03.182Z,11
2023-08-19T06:11:02.908Z,11
2023-08-19T06:12:03.687Z,11
2023-08-19T06:13:03.214Z,13
2023-08-19T06:15:03.520Z,12
2023-08-19T06:16:03.318Z,11
2023-08-19T06:17:03.293Z,14
2023-08-19T06:18:03.388Z,13
2023-08-19T06:19:03.411Z,11
2023-08-19T06:20:03.025Z,11
2023-08-19T06:21:02.768Z,11
2023-08-19T06:22:03.405Z,11
2023-08-19T06:23:02.981Z,11
2023-08-19T06:25:03.478Z,11
2023-08-19T06:26:03.087Z,12
2023-08-19T06:27:02.803Z,12
2023-08-19T06:28:03.427Z,11
2023-08-19T06:29:02.967Z,11
2023-08-19T06:30:03.680Z,11
2023-08-19T06:31:03.611Z,12
2023-08-19T06:33:03.049Z,13
2023-08-19T06:35:03.645Z,11
2023-08-19T06:38:03.378Z,11
2023-08-19T06:39:02.999Z,11
2023-08-19T06:40:02.948Z,11
2023-08-19T06:41:03.476Z,11
2023-08-19T06:42:03.440Z,12
2023-08-19T06:44:02.533Z,11
2023-08-19T06:45:03.213Z,11
2023-08-19T06:46:02.822Z,11
2023-08-19T06:47:03.574Z,11
2023-08-19T06:48:03.353Z,11
2023-08-19T06:50:03.784Z,14
2023-08-19T06:51:03.541Z,11
2023-08-19T06:52:03.310Z,11
2023-08-19T06:54:03.773Z,20
2023-08-19T06:55:03.466Z,14
2023-08-19T06:57:02.819Z,13
2023-08-19T06:58:03.458Z,12
2023-08-19T06:59:03.072Z,14
2023-08-19T07:00:03.376Z,14
2023-08-19T07:02:03.542Z,14
2023-08-19T07:03:03.479Z,13
2023-08-19T07:04:03.443Z,13
2023-08-19T07:05:03.458Z,12
2023-08-19T07:06:03.106Z,12
2023-08-19T07:08:03.488Z,12
2023-08-19T07:09:03.814Z,13
2023-08-19T07:10:03.747Z,14
2023-08-19T07:11:03.267Z,13
2023-08-19T07:12:03.196Z,14
2023-08-19T07:13:02.936Z,14
2023-08-19T07:14:03.779Z,13
2023-08-19T07:15:03.622Z,12
2023-08-19T07:16:03.399Z,12
2023-08-19T07:17:03.369Z,11
2023-08-19T07:18:03.082Z,15
2023-08-19T07:19:02.675Z,13
2023-08-19T07:20:03.576Z,12
2023-08-19T07:21:03.232Z,12
2023-08-19T07:23:03.497Z,11
2023-08-19T07:24:03.278Z,11
2023-08-19T07:25:03.080Z,11
2023-08-19T07:27:03.452Z,12
2023-08-19T07:28:03.118Z,12
2023-08-19T07:30:03.485Z,11
2023-08-19T07:31:03.537Z,12
2023-08-19T07:32:03.277Z,13
2023-08-19T07:33:03.026Z,14
2023-08-19T07:34:02.635Z,13
2023-08-19T07:35:03.640Z,13
2023-08-19T07:36:03.297Z,14
2023-08-19T07:38:03.548Z,14
2023-08-19T07:39:03.307Z,13
2023-08-19T07:40:03.374Z,13
2023-08-19T07:41:03.184Z,13
2023-08-19T07:42:02.939Z,16
2023-08-19T07:43:03.474Z,13
2023-08-19T07:44:03.616Z,14
2023-08-19T07:46:02.972Z,12
2023-08-19T07:48:03.471Z,14
2023-08-19T07:49:03.127Z,13
2023-08-19T07:50:03.066Z,12
2023-08-19T07:51:02.596Z,12
2023-08-19T07:52:03.272Z,12
2023-08-19T07:53:02.849Z,12
2023-08-19T07:54:03.565Z,12
2023-08-19T07:55:03.377Z,12
2023-08-19T07:56:03.243Z,12
2023-08-19T07:58:03.526Z,12
2023-08-19T07:59:03.409Z,13
2023-08-19T08:00:03.280Z,13
2023-08-19T08:02:03.506Z,12
2023-08-19T08:03:03.306Z,12
2023-08-19T08:04:03.334Z,13
2023-08-19T08:05:03.685Z,14
2023-08-19T08:06:03.941Z,12
2023-08-19T08:07:03.756Z,12
2023-08-19T08:08:03.505Z,12
2023-08-19T08:09:03.323Z,12
2023-08-19T08:10:03.549Z,13
2023-08-19T08:11:03.295Z,10
2023-08-19T08:12:02.945Z,11
2023-08-19T08:13:03.613Z,11
2023-08-19T08:14:03.538Z,14
2023-08-19T08:15:03.429Z,12
2023-08-19T08:16:03.153Z,12
2023-08-19T08:18:02.962Z,14
2023-08-19T08:19:03.669Z,13
2023-08-19T08:20:03.456Z,14
2023-08-19T08:22:03.588Z,13
2023-08-19T08:23:03.187Z,16
2023-08-19T08:25:03.657Z,14
2023-08-19T08:26:03.290Z,15
2023-08-19T08:28:03.567Z,12
2023-08-19T08:29:03.113Z,12
2023-08-19T08:30:03.863Z,12
2023-08-19T08:31:03.498Z,13
2023-08-19T08:32:03.564Z,15
2023-08-19T08:33:05.607Z,13
2023-08-19T08:35:03.611Z,13
2023-08-19T08:36:03.445Z,13
2023-08-19T08:37:03.396Z,13
2023-08-19T08:38:02.979Z,13
2023-08-19T08:39:03.101Z,14
2023-08-19T08:40:03.581Z,13
2023-08-19T08:41:03.768Z,13
2023-08-19T08:42:03.501Z,13
2023-08-19T08:43:03.114Z,14
2023-08-19T08:45:03.771Z,14
2023-08-19T08:46:03.840Z,13
2023-08-19T08:47:03.683Z,13
2023-08-19T08:48:04.232Z,14
2023-08-19T08:50:03.675Z,13
2023-08-19T08:51:03.266Z,14
2023-08-19T08:53:03.608Z,13
2023-08-19T08:54:03.260Z,13
2023-08-19T08:55:03.165Z,13
2023-08-19T08:56:04.232Z,13
2023-08-19T08:58:03.519Z,20
2023-08-19T08:59:03.411Z,14
2023-08-19T09:00:19.709Z,13
2023-08-19T09:02:02.962Z,13
2023-08-19T09:03:03.993Z,13
2023-08-19T09:05:04.465Z,14
2023-08-19T09:07:02.927Z,14
2023-08-19T09:08:03.616Z,14
2023-08-19T09:09:03.374Z,14
2023-08-19T09:10:03.736Z,14
2023-08-19T09:11:03.532Z,13
2023-08-19T09:12:03.552Z,12
2023-08-19T09:13:03.201Z,13
2023-08-19T09:14:03.274Z,13
2023-08-19T09:15:03.356Z,14
2023-08-19T09:16:03.589Z,14
2023-08-19T09:17:03.628Z,13
2023-08-19T09:18:03.615Z,15
2023-08-19T09:19:03.353Z,14
2023-08-19T09:20:03.329Z,14
2023-08-19T09:22:02.864Z,17
2023-08-19T09:23:09.873Z,15
2023-08-19T09:25:03.408Z,13
2023-08-19T09:26:03.236Z,15
2023-08-19T09:27:03.031Z,13
2023-08-19T09:28:03.064Z,13
2023-08-19T09:29:06.381Z,14
2023-08-19T09:31:03.209Z,14
2023-08-19T09:32:03.045Z,14
2023-08-19T09:33:03.614Z,14
2023-08-19T09:34:03.659Z,14
2023-08-19T09:35:03.735Z,13
2023-08-19T09:36:03.655Z,14
2023-08-19T09:37:03.309Z,14
2023-08-19T09:38:03.142Z,14
2023-08-19T09:39:02.778Z,13
2023-08-19T09:40:04.121Z,14
2023-08-19T09:42:03.602Z,14
2023-08-19T09:43:03.212Z,15
2023-08-19T09:44:03.034Z,14
2023-08-19T09:46:03.627Z,14
2023-08-19T09:47:04.195Z,14
2023-08-19T09:49:03.822Z,14
2023-08-19T09:50:04.016Z,14
2023-08-19T09:52:03.559Z,14
2023-08-19T09:53:03.327Z,14
2023-08-19T09:54:02.900Z,13
2023-08-19T09:55:03.665Z,14
2023-08-19T09:56:03.269Z,14
2023-08-19T09:58:03.558Z,14
2023-08-19T09:59:03.228Z,13
2023-08-19T10:00:03.285Z,13
2023-08-19T10:01:04.300Z,12
2023-08-19T10:02:03.011Z,13
2023-08-19T10:03:02.883Z,14
2023-08-19T10:04:04.080Z,13
2023-08-19T10:07:03.293Z,13
2023-08-19T10:08:03.118Z,13
2023-08-19T10:09:03.028Z,13
2023-08-19T10:10:03.651Z,13
2023-08-19T10:11:03.401Z,14
2023-08-19T10:12:03.551Z,15
2023-08-19T10:13:03.221Z,13
2023-08-19T10:15:03.638Z,15
2023-08-19T10:16:03.139Z,15
2023-08-19T10:18:03.656Z,14
2023-08-19T10:20:03.081Z,14
2023-08-19T10:21:03.449Z,14
2023-08-19T10:22:03.782Z,13
2023-08-19T10:23:02.917Z,14
2023-08-19T10:24:03.651Z,13
2023-08-19T10:25:03.754Z,16
2023-08-19T10:26:03.434Z,15
2023-08-19T10:27:03.184Z,14
2023-08-19T10:28:03.302Z,16
2023-08-19T10:29:04.936Z,14
2023-08-19T10:33:03.692Z,16
2023-08-19T10:35:03.234Z,14
2023-08-19T10:36:03.102Z,14
2023-08-19T10:37:02.774Z,14
2023-08-19T10:38:03.456Z,15
2023-08-19T10:39:03.459Z,14
2023-08-19T10:40:03.328Z,14
2023-08-19T10:41:03.632Z,13
2023-08-19T10:42:03.246Z,14
2023-08-19T10:44:03.661Z,14
2023-08-19T10:45:03.970Z,15
2023-08-19T10:47:02.983Z,15
2023-08-19T10:48:02.622Z,14
2023-08-19T10:49:03.214Z,13
2023-08-19T10:50:03.174Z,15
2023-08-19T10:51:02.992Z,14
2023-08-19T10:52:03.020Z,13
2023-08-19T10:53:02.570Z,16
2023-08-19T10:54:03.148Z,14
2023-08-19T10:55:03.262Z,14
2023-08-19T10:56:02.753Z,14
2023-08-19T10:57:03.396Z,13
2023-08-19T10:58:03.527Z,13
2023-08-19T10:59:03.445Z,14
2023-08-19T11:00:03.452Z,13
2023-08-19T11:01:03.205Z,14
2023-08-19T11:02:03.402Z,14
2023-08-19T11:03:03.156Z,14
2023-08-19T11:04:02.992Z,16
2023-08-19T11:05:02.826Z,15
2023-08-19T11:06:03.562Z,15
2023-08-19T11:07:03.115Z,15
2023-08-19T11:09:03.657Z,15
2023-08-19T11:10:03.632Z,15
2023-08-19T11:11:03.511Z,14
2023-08-19T11:12:03.347Z,16
2023-08-19T11:13:02.948Z,15
2023-08-19T11:14:02.745Z,16
2023-08-19T11:15:04.172Z,15
2023-08-19T11:17:02.837Z,16
2023-08-19T11:18:03.900Z,15
2023-08-19T11:20:03.510Z,14
2023-08-19T11:22:02.845Z,15
2023-08-19T11:23:03.550Z,16
2023-08-19T11:24:03.230Z,15
2023-08-19T11:25:03.172Z,16
2023-08-19T11:27:03.509Z,15
2023-08-19T11:28:03.133Z,14
2023-08-19T11:29:02.843Z,15
2023-08-19T11:30:04.719Z,15
2023-08-19T11:32:03.695Z,16
2023-08-19T11:33:03.758Z,16
2023-08-19T11:34:03.591Z,15
2023-08-19T11:36:03.653Z,16
2023-08-19T11:37:03.214Z,15
2023-08-19T11:38:03.437Z,16
2023-08-19T11:39:03.446Z,15
2023-08-19T11:40:30.455Z,17
2023-08-19T11:42:03.000Z,16
2023-08-19T11:43:02.539Z,15
2023-08-19T11:44:03.287Z,17
2023-08-19T11:45:03.246Z,16
2023-08-19T11:46:03.617Z,16
2023-08-19T11:47:03.623Z,15
2023-08-19T11:48:03.469Z,16
2023-08-19T11:49:03.361Z,17
2023-08-19T11:50:03.211Z,17
2023-08-19T11:52:03.448Z,18
2023-08-19T11:53:03.075Z,17
2023-08-19T11:55:03.421Z,15
2023-08-19T11:56:03.355Z,16
2023-08-19T11:57:03.021Z,17
2023-08-19T11:58:03.005Z,16
2023-08-19T11:59:02.488Z,15
2023-08-19T12:00:03.452Z,17
2023-08-19T12:01:02.757Z,17
2023-08-19T12:02:03.583Z,17
2023-08-19T12:03:03.417Z,18
2023-08-19T12:04:03.279Z,21
2023-08-19T12:05:03.031Z,18
2023-08-19T12:06:03.074Z,17
2023-08-19T12:07:02.688Z,18
2023-08-19T12:08:03.335Z,18
2023-08-19T12:09:03.315Z,17
2023-08-19T12:10:03.103Z,17
2023-08-19T12:11:02.692Z,18
2023-08-19T12:12:03.304Z,18
2023-08-19T12:13:02.870Z,17
2023-08-19T12:14:03.578Z,16
2023-08-19T12:15:03.485Z,18
2023-08-19T12:16:04.274Z,18
2023-08-19T12:17:03.027Z,17
2023-08-19T12:18:03.282Z,19
2023-08-19T12:20:03.226Z,19
2023-08-19T12:21:03.466Z,18
2023-08-19T12:22:03.478Z,27
2023-08-19T12:23:03.078Z,17
2023-08-19T12:24:02.832Z,18
2023-08-19T12:25:03.934Z,17
2023-08-19T12:26:03.797Z,25
2023-08-19T12:28:03.042Z,22
2023-08-19T12:30:03.376Z,19
2023-08-19T12:31:03.596Z,19
2023-08-19T12:32:03.508Z,21
2023-08-19T12:33:03.308Z,21
2023-08-19T12:34:03.033Z,19
2023-08-19T12:35:02.844Z,18
2023-08-19T12:36:20.809Z,19
2023-08-19T12:39:03.700Z,20
2023-08-19T12:40:03.622Z,18
2023-08-19T12:41:03.107Z,22
2023-08-19T12:42:03.220Z,26
2023-08-19T12:43:03.250Z,21
2023-08-19T12:44:03.128Z,21
2023-08-19T12:45:03.225Z,20
2023-08-19T12:46:03.212Z,20
2023-08-19T12:47:02.841Z,22
2023-08-19T12:48:03.785Z,22
2023-08-19T12:49:03.484Z,22
2023-08-19T12:50:03.423Z,24
2023-08-19T12:51:03.114Z,23
2023-08-19T12:52:02.690Z,21
2023-08-19T12:53:03.346Z,22
2023-08-19T12:54:03.189Z,23
2023-08-19T12:55:03.127Z,22
2023-08-19T12:56:03.020Z,23
2023-08-19T12:57:02.737Z,22
2023-08-19T12:58:03.407Z,22
2023-08-19T12:59:03.241Z,22
2023-08-19T13:00:03.045Z,22
2023-08-19T13:02:02.822Z,22
2023-08-19T13:03:03.924Z,23
2023-08-19T13:04:03.694Z,23
2023-08-19T13:05:03.551Z,21
2023-08-19T13:06:03.223Z,22
2023-08-19T13:08:03.773Z,22
2023-08-19T13:09:03.614Z,23
2023-08-19T13:10:03.571Z,23
2023-08-19T13:11:03.487Z,22
2023-08-19T13:12:03.176Z,23
2023-08-19T13:13:02.943Z,22
2023-08-19T13:14:03.640Z,24
2023-08-19T13:15:03.515Z,25
2023-08-19T13:16:03.122Z,25
2023-08-19T13:17:03.144Z,23
2023-08-19T13:18:03.160Z,23
2023-08-19T13:19:02.740Z,23
2023-08-19T13:20:03.648Z,24
2023-08-19T13:21:03.352Z,25
2023-08-19T13:23:03.471Z,23
2023-08-19T13:24:03.195Z,23
2023-08-19T13:25:03.017Z,24
2023-08-19T13:27:03.472Z,24
2023-08-19T13:28:03.117Z,23
2023-08-19T13:30:08.270Z,26
2023-08-19T13:32:03.638Z,24
2023-08-19T13:33:03.213Z,24
2023-08-19T13:35:03.704Z,24
2023-08-19T13:36:06.934Z,21
2023-08-19T13:38:03.190Z,21
2023-08-19T13:39:03.098Z,21
2023-08-19T13:40:03.064Z,22
2023-08-19T13:41:02.893Z,24
2023-08-19T13:42:03.519Z,22
2023-08-19T13:43:03.198Z,21
2023-08-19T13:45:03.273Z,20
2023-08-19T13:46:03.243Z,21
2023-08-19T13:47:03.238Z,19
2023-08-19T13:48:16.791Z,19
2023-08-19T13:50:03.456Z,21
2023-08-19T13:51:03.408Z,20
2023-08-19T13:52:03.188Z,20
2023-08-19T13:53:02.972Z,18
2023-08-19T13:55:03.713Z,18
2023-08-19T13:56:03.456Z,18
2023-08-19T13:57:03.238Z,18
2023-08-19T13:59:03.720Z,19
2023-08-19T14:00:04.790Z,22
2023-08-19T14:02:07.523Z,19
2023-08-19T14:03:03.386Z,18
2023-08-19T14:05:02.956Z,17
2023-08-19T14:06:03.748Z,18
2023-08-19T14:07:03.457Z,20
2023-08-19T14:08:03.539Z,22
2023-08-19T14:09:04.245Z,24
2023-08-19T14:11:02.856Z,22
2023-08-19T14:12:03.570Z,19
2023-08-19T14:13:03.358Z,18
2023-08-19T14:14:03.154Z,18
2023-08-19T14:15:03.239Z,21
2023-08-19T14:16:02.927Z,21
2023-08-19T14:17:03.730Z,19
2023-08-19T14:18:03.703Z,20
2023-08-19T14:20:09.309Z,19
2023-08-19T14:22:03.029Z,21
2023-08-19T14:23:02.814Z,22
2023-08-19T14:24:03.544Z,21
2023-08-19T14:25:03.486Z,23
2023-08-19T14:26:07.959Z,22
2023-08-19T14:28:03.414Z,23
2023-08-19T14:29:03.768Z,22
2023-08-19T14:30:03.627Z,22
2023-08-19T14:31:03.357Z,21
2023-08-19T14:32:11.803Z,21
2023-08-19T14:34:03.632Z,22
2023-08-19T14:35:03.523Z,24
2023-08-19T14:37:03.087Z,21
2023-08-19T14:38:02.959Z,22
2023-08-19T14:39:04.181Z,22
2023-08-19T14:41:02.780Z,21
2023-08-19T14:42:03.656Z,22
2023-08-19T14:43:03.442Z,24
2023-08-19T14:44:03.196Z,22
2023-08-19T14:45:03.135Z,24
2023-08-19T14:46:03.602Z,23
2023-08-19T14:47:03.288Z,22
2023-08-19T14:48:03.328Z,21
2023-08-19T14:49:03.023Z,22
2023-08-19T14:51:02.992Z,17
2023-08-19T14:52:03.234Z,17
2023-08-19T14:53:03.027Z,19
2023-08-19T14:54:02.699Z,22
2023-08-19T14:55:03.607Z,18
2023-08-19T14:56:03.342Z,18
2023-08-19T14:57:03.053Z,21
2023-08-19T14:59:03.526Z,34
2023-08-19T15:00:03.551Z,21
2023-08-19T15:01:02.953Z,19
2023-08-19T15:03:04.450Z,19
2023-08-19T15:04:03.509Z,19
2023-08-19T15:05:03.521Z,21
2023-08-19T15:06:03.390Z,22
2023-08-19T15:09:03.817Z,21
2023-08-19T15:10:03.898Z,18
2023-08-19T15:11:03.573Z,24
2023-08-19T15:12:03.790Z,23
2023-08-19T15:13:03.605Z,21
2023-08-19T15:14:03.221Z,19
2023-08-19T15:16:03.432Z,19
2023-08-19T15:18:03.748Z,21
2023-08-19T15:20:03.120Z,19
2023-08-19T15:22:02.605Z,19
2023-08-19T15:23:03.245Z,19
2023-08-19T15:24:02.725Z,21
2023-08-19T15:25:03.718Z,22
2023-08-19T15:26:03.416Z,22
2023-08-19T15:27:03.019Z,19
2023-08-19T15:28:02.587Z,18
2023-08-19T15:29:03.477Z,21
2023-08-19T15:30:03.255Z,21
2023-08-19T15:31:03.484Z,21
2023-08-19T15:32:03.494Z,19
2023-08-19T15:33:03.060Z,19
2023-08-19T15:35:02.883Z,19
2023-08-19T15:36:03.615Z,25
2023-08-19T15:37:03.295Z,25
2023-08-19T15:39:03.874Z,19
2023-08-19T15:40:03.625Z,19
2023-08-19T15:42:02.973Z,21
2023-08-19T15:43:02.566Z,21
2023-08-19T15:44:03.349Z,19
2023-08-19T15:45:03.106Z,21
2023-08-19T15:46:03.091Z,19
2023-08-19T15:48:03.838Z,21
2023-08-19T15:49:03.498Z,19
2023-08-19T15:50:03.225Z,17
2023-08-19T15:51:02.861Z,17
2023-08-19T15:52:03.713Z,16
2023-08-19T15:53:03.302Z,17
2023-08-19T15:54:03.065Z,17
2023-08-19T15:56:02.971Z,22
2023-08-19T15:57:02.694Z,19
2023-08-19T15:58:03.522Z,17
2023-08-19T15:59:04.174Z,17
2023-08-19T16:01:03.203Z,17
2023-08-19T16:03:03.732Z,16
2023-08-19T16:05:03.474Z,17
2023-08-19T16:06:03.101Z,16
2023-08-19T16:07:02.645Z,15
2023-08-19T16:08:03.674Z,17
2023-08-19T16:09:03.202Z,17
2023-08-19T16:10:03.331Z,18
2023-08-19T16:11:02.879Z,17
2023-08-19T16:12:03.707Z,17
2023-08-19T16:13:03.451Z,21
2023-08-19T16:14:03.067Z,17
2023-08-19T16:16:03.696Z,19
2023-08-19T16:17:03.360Z,18
2023-08-19T16:18:03.214Z,18
2023-08-19T16:20:03.618Z,17
2023-08-19T16:21:03.464Z,16
2023-08-19T16:24:03.428Z,15
2023-08-19T16:25:03.244Z,14
2023-08-19T16:26:02.802Z,15
2023-08-19T16:27:03.403Z,16
2023-08-19T16:28:02.958Z,15
2023-08-19T16:29:03.572Z,14
2023-08-19T16:30:03.157Z,13
2023-08-19T16:33:03.618Z,14
2023-08-19T16:34:03.265Z,14
2023-08-19T16:35:03.036Z,15
2023-08-19T16:37:03.399Z,15
2023-08-19T16:38:02.840Z,14
2023-08-19T16:39:03.832Z,13
2023-08-19T16:40:03.780Z,15
2023-08-19T16:41:03.431Z,13
2023-08-19T16:43:03.043Z,13
2023-08-19T16:44:03.019Z,14
2023-08-19T16:45:03.081Z,16
2023-08-19T16:46:02.877Z,14
2023-08-19T16:47:03.572Z,14
2023-08-19T16:48:03.283Z,14
2023-08-19T16:49:02.935Z,14
2023-08-19T16:50:03.884Z,14
2023-08-19T16:51:03.402Z,14
2023-08-19T16:52:03.162Z,14
2023-08-19T16:53:03.041Z,14
2023-08-19T16:54:02.753Z,14
2023-08-19T16:55:03.603Z,15
2023-08-19T16:56:03.371Z,15
2023-08-19T16:57:02.976Z,13
2023-08-19T16:59:03.649Z,14
2023-08-19T17:00:03.475Z,14
2023-08-19T17:01:02.976Z,14
2023-08-19T17:03:03.684Z,14
2023-08-19T17:04:03.416Z,15
2023-08-19T17:05:03.277Z,15
2023-08-19T17:06:02.972Z,14
2023-08-19T17:07:03.568Z,15
2023-08-19T17:08:03.483Z,15
2023-08-19T17:09:03.066Z,15
2023-08-19T17:10:03.197Z,14
2023-08-19T17:11:03.139Z,14
2023-08-19T17:12:03.068Z,15
2023-08-19T17:13:02.727Z,14
2023-08-19T17:14:03.402Z,15
2023-08-19T17:15:03.328Z,14
2023-08-19T17:16:03.161Z,14
2023-08-19T17:18:03.225Z,13
2023-08-19T17:20:03.079Z,13
2023-08-19T17:21:02.829Z,13